Time;durP1;ratioP1;P1;durP2;ratioP2;P2;SDS_P1;SDS_P2;PMS_P1;PMS_P2;Temp;Humidity;BMP_temperature;BMP_pressure;BME280_temperature;BME280_humidity;BME280_pressure;Samples;Min_cycle;Max_cycle;Signal;HPM_P1;HPM_P2
2023/10/28 00:03:16;;;;;;;;;;;13.90;64.80;;;12.79;64.08;99302.03;12284661;19;20379;-81
2023/10/28 00:07:18;;;;;;;;;;;13.90;64.90;;;12.79;64.11;99288.09;12279086;19;19918;-83
2023/10/28 00:11:20;;;;;;;;;;;13.90;64.90;;;12.79;64.02;99294.16;12282964;19;19918;-83
2023/10/28 00:15:23;;;;;;;;;;;13.90;64.70;;;12.76;64.12;99298.84;12282820;19;19929;-83
2023/10/28 00:19:28;;;;;;;;;;;14.00;64.80;;;12.74;64.09;99296.34;12277559;19;19927;-83
2023/10/28 00:23:31;;;;;;;;;;;14.00;64.80;;;12.72;64.34;99298.31;12280190;19;20334;-83
2023/10/28 00:27:33;;;;;;;;;;;14.00;64.90;;;12.79;64.17;99302.03;12273501;19;20316;-84
2023/10/28 00:31:34;;;;;;;;;;;14.00;64.90;;;12.82;64.23;99307.00;12276177;19;19915;-83
2023/10/28 00:35:36;;;;;;;;;;;14.00;64.90;;;12.78;64.18;99303.00;12278150;19;19931;-82
2023/10/28 00:39:38;;;;;;;;;;;13.90;64.80;;;12.80;64.08;99308.94;12277286;19;19910;-82
2023/10/28 00:43:40;;;;;;;;;;;14.00;64.90;;;12.79;64.12;99295.97;12278058;19;19914;-83
2023/10/28 00:47:46;;;;;;;;;;;14.00;64.80;;;12.83;64.06;99308.66;12272458;19;19934;-82
2023/10/28 00:51:49;;;;;;;;;;;14.00;64.70;;;12.76;64.04;99296.25;12278259;19;19928;-82
2023/10/28 00:55:51;;;;;;;;;;;14.00;64.70;;;12.82;64.03;99308.78;12273637;19;19918;-82
2023/10/28 00:59:53;;;;;;;;;;;14.00;64.80;;;12.78;64.08;99305.63;12272873;19;19940;-83
2023/10/28 01:03:55;;;;;;;;;;;13.90;64.70;;;12.70;64.15;99297.59;12274802;19;19923;-83
2023/10/28 01:07:58;;;;;;;;;;;13.90;64.60;;;12.78;64.11;99299.56;12279541;19;19929;-83
2023/10/28 01:11:59;;;;;;;;;;;14.10;65.00;;;12.79;64.03;99295.97;12279763;19;19930;-81
2023/10/28 01:16:01;;;;;;;;;;;14.00;64.80;;;12.80;64.13;99298.47;12280205;19;19950;-83
2023/10/28 01:20:04;;;;;;;;;;;14.10;64.90;;;12.78;64.13;99304.81;12274321;19;19919;-83
2023/10/28 01:24:07;;;;;;;;;;;14.00;64.90;;;12.76;64.07;99302.31;12280327;19;19923;-82
2023/10/28 01:28:08;;;;;;;;;;;14.00;65.00;;;12.74;64.14;99293.75;12269456;19;19949;-83
2023/10/28 01:32:10;;;;;;;;;;;14.00;65.00;;;12.81;64.15;99301.91;12275439;19;20007;-83
2023/10/28 01:36:11;;;;;;;;;;;13.90;65.00;;;12.80;64.17;99292.41;12275225;19;19915;-83
2023/10/28 01:40:13;;;;;;;;;;;13.90;64.80;;;12.71;64.03;99288.78;12277275;19;19929;-83
2023/10/28 01:44:16;;;;;;;;;;;14.00;64.90;;;12.78;64.20;99295.16;12274219;19;19926;-81
2023/10/28 01:48:18;;;;;;;;;;;14.00;65.00;;;12.81;64.22;99300.13;12273571;19;19930;-81
2023/10/28 01:52:19;;;;;;;;;;;13.90;65.00;;;12.82;64.18;99307.00;12276761;19;19914;-84
2023/10/28 01:56:21;;;;;;;;;;;13.90;65.10;;;12.77;64.16;99287.41;12279114;19;19919;-82
2023/10/28 02:00:26;;;;;;;;;;;13.90;65.20;;;12.80;64.28;99298.47;12276267;19;19915;-81
2023/10/28 02:04:28;;;;;;;;;;;13.90;65.10;;;12.80;64.20;99295.84;12278830;19;20337;-83
2023/10/28 02:08:30;;;;;;;;;;;13.90;65.20;;;12.72;64.22;99286.97;12286775;19;19918;-82
2023/10/28 02:12:36;;;;;;;;;;;13.90;65.20;;;12.80;64.13;99303.69;12286964;19;19943;-84
2023/10/28 02:16:38;;;;;;;;;;;13.90;65.30;;;12.77;64.29;99297.88;12291108;19;19915;-82
2023/10/28 02:20:41;;;;;;;;;;;13.90;65.30;;;12.79;64.16;99311.69;12287373;19;19919;-82
2023/10/28 02:24:42;;;;;;;;;;;13.90;65.30;;;12.74;64.31;99298.97;12292019;19;19923;-83
2023/10/28 02:28:45;;;;;;;;;;;13.90;65.30;;;12.80;64.13;99310.75;12289309;19;19954;-84
2023/10/28 02:32:47;;;;;;;;;;;13.90;65.30;;;12.79;64.23;99299.41;12287825;19;19956;-83
2023/10/28 02:36:49;;;;;;;;;;;13.90;65.20;;;12.76;64.27;99302.31;12284988;19;19923;-84
2023/10/28 02:40:51;;;;;;;;;;;14.00;65.30;;;12.71;64.27;99301.88;12288502;19;19926;-82
2023/10/28 02:44:52;;;;;;;;;;;13.90;65.40;;;12.79;64.24;99309.06;12284352;19;19915;-82
2023/10/28 02:48:54;;;;;;;;;;;13.90;65.20;;;12.74;64.37;99306.00;12285344;19;19929;-83
2023/10/28 02:52:59;;;;;;;;;;;13.90;65.20;;;12.77;64.24;99314.47;12287585;19;19915;-83
2023/10/28 02:57:01;;;;;;;;;;;13.90;65.20;;;12.66;64.24;99287.53;12280308;19;19935;-82
2023/10/28 03:01:10;;;;;;;;;;;13.90;65.20;;;12.74;64.28;99306.84;12277880;19;19925;-83
2023/10/28 03:05:11;;;;;;;;;;;13.90;65.20;;;12.76;64.24;99315.41;12273400;19;20321;-83
2023/10/28 03:09:14;;;;;;;;;;;13.90;65.40;;;12.79;64.28;99315.13;12273848;19;19939;-83
2023/10/28 03:13:15;;;;;;;;;;;13.90;65.40;;;12.75;64.24;99310.31;12283857;19;20042;-85
2023/10/28 03:17:17;;;;;;;;;;;13.90;65.30;;;12.77;64.21;99322.31;12282036;19;20399;-83
2023/10/28 03:21:19;;;;;;;;;;;13.90;65.30;;;12.61;64.29;99294.00;12282484;19;19943;-82
2023/10/28 03:25:21;;;;;;;;;;;13.90;65.30;;;12.76;64.29;99325.88;12288306;19;19929;-82
2023/10/28 03:29:22;;;;;;;;;;;13.90;65.40;;;12.66;64.36;99316.31;12281957;19;19930;-84
2023/10/28 03:33:26;;;;;;;;;;;13.90;65.40;;;12.75;64.28;99337.31;12282416;19;20271;-83
2023/10/28 03:37:28;;;;;;;;;;;13.90;65.50;;;12.76;64.32;99338.97;12279499;19;19944;-84
2023/10/28 03:41:32;;;;;;;;;;;13.90;65.50;;;12.68;64.25;99323.09;12276905;19;19918;-82
2023/10/28 03:45:37;;;;;;;;;;;13.90;65.50;;;12.60;64.18;99308.03;12280417;19;19927;-81
2023/10/28 03:49:39;;;;;;;;;;;13.90;65.40;;;12.75;64.33;99336.50;12275775;19;19915;-83
2023/10/28 03:53:41;;;;;;;;;;;13.90;65.50;;;12.67;64.18;99326.69;12285022;19;19952;-83
2023/10/28 03:57:43;;;;;;;;;;;13.90;65.30;;;12.66;64.17;99326.81;12277934;19;19936;-83
2023/10/28 04:01:45;;;;;;;;;;;13.90;65.30;;;12.72;64.24;99344.59;12279432;19;19922;-84
2023/10/28 04:05:50;;;;;;;;;;;13.90;65.50;;;12.70;64.32;99344.75;12285339;19;19907;-83
2023/10/28 04:09:51;;;;;;;;;;;13.80;65.50;;;12.66;64.32;99345.97;12281660;19;19920;-84
2023/10/28 04:13:53;;;;;;;;;;;13.80;65.50;;;12.71;64.17;99351.63;12282640;19;19915;-83
2023/10/28 04:17:55;;;;;;;;;;;13.80;65.40;;;12.58;64.23;99335.31;12280084;19;19915;-83
2023/10/28 04:21:56;;;;;;;;;;;13.80;65.30;;;12.62;64.24;99348.03;12277246;19;19931;-83
2023/10/28 04:25:58;;;;;;;;;;;13.80;65.30;;;12.53;64.41;99338.34;12282337;19;20342;-84
2023/10/28 04:30:00;;;;;;;;;;;13.80;65.30;;;12.51;64.24;99339.44;12275717;19;19911;-84
2023/10/28 04:34:03;;;;;;;;;;;13.80;65.40;;;12.66;64.23;99356.44;12278170;19;19919;-83
2023/10/28 04:38:04;;;;;;;;;;;13.80;65.50;;;12.67;64.37;99359.91;12278130;19;19930;-84
2023/10/28 04:42:07;;;;;;;;;;;13.80;65.70;;;12.62;64.38;99353.25;12280697;19;19919;-82
2023/10/28 04:46:09;;;;;;;;;;;13.80;65.70;;;12.67;64.24;99365.16;12285513;19;19954;-84
2023/10/28 04:50:10;;;;;;;;;;;13.80;65.80;;;12.54;64.31;99354.88;12279020;19;19918;-83
2023/10/28 04:54:11;;;;;;;;;;;13.80;66.10;;;12.46;64.31;99358.16;12280203;19;19918;-83
2023/10/28 04:58:14;;;;;;;;;;;13.70;65.70;;;12.56;64.41;99377.38;12272313;19;20166;-84
2023/10/28 05:02:15;;;;;;;;;;;13.70;65.80;;;12.57;64.36;99373.78;12277874;19;19911;-84
2023/10/28 05:06:17;;;;;;;;;;;13.70;65.80;;;12.54;64.53;99379.28;12276370;19;19914;-85
2023/10/28 05:10:19;;;;;;;;;;;13.70;66.50;;;12.58;64.42;99378.06;12264599;19;19915;-85
2023/10/28 05:14:20;;;;;;;;;;;13.70;65.90;;;12.61;64.39;99380.44;12270999;19;20356;-84
2023/10/28 05:18:23;;;;;;;;;;;13.80;65.90;;;12.67;64.36;99400.03;12278251;19;20339;-84
2023/10/28 05:22:24;;;;;;;;;;;13.90;65.80;;;12.67;64.31;99404.44;12274089;19;19973;-84
2023/10/28 05:26:25;;;;;;;;;;;13.80;65.60;;;12.61;64.26;99409.22;12274398;19;19911;-85
2023/10/28 05:30:27;;;;;;;;;;;13.80;65.50;;;12.53;64.28;99392.50;12273026;19;19948;-84
2023/10/28 05:34:28;;;;;;;;;;;13.80;65.50;;;12.34;64.25;99361.78;12277086;19;19951;-84
2023/10/28 05:38:30;;;;;;;;;;;13.80;65.50;;;12.62;64.33;99410.06;12283620;19;19923;-85
2023/10/28 05:42:31;;;;;;;;;;;13.70;65.50;;;12.31;64.19;99367.28;12285637;19;19919;-83
2023/10/28 05:46:33;;;;;;;;;;;13.70;65.40;;;12.62;64.32;99425.78;12287249;19;20014;-84
2023/10/28 05:50:34;;;;;;;;;;;13.80;65.50;;;12.62;64.28;99421.34;12288627;19;19915;-83
2023/10/28 05:54:37;;;;;;;;;;;13.80;65.50;;;12.59;64.36;99424.25;12281697;19;20317;-84
2023/10/28 05:58:38;;;;;;;;;;;14.00;65.70;;;12.58;64.35;99435.69;12268491;19;19930;-84
2023/10/28 06:02:39;;;;;;;;;;;13.80;65.50;;;12.63;64.38;99438.72;12260120;19;19934;-83
2023/10/28 06:06:41;;;;;;;;;;;13.80;65.50;;;12.66;64.48;99449.91;12281152;19;19922;-85
2023/10/28 06:10:45;;;;;;;;;;;13.80;65.50;;;12.68;64.41;99461.91;12275158;19;19920;-84
2023/10/28 06:14:46;;;;;;;;;;;13.80;65.50;;;12.65;64.37;99462.16;12272429;19;20276;-85
2023/10/28 06:18:48;;;;;;;;;;;13.80;65.50;;;12.70;64.32;99472.28;12273252;19;19911;-84
2023/10/28 06:22:50;;;;;;;;;;;13.80;65.40;;;12.67;64.44;99465.50;12261128;19;20349;-83
2023/10/28 06:26:51;;;;;;;;;;;13.80;65.40;;;12.68;64.30;99466.31;12275163;19;19935;-85
2023/10/28 06:30:53;;;;;;;;;;;13.80;65.50;;;12.68;64.41;99474.19;12269394;19;19923;-83
2023/10/28 06:34:55;;;;;;;;;;;13.80;65.50;;;12.65;64.29;99477.06;12266096;19;19924;-83
2023/10/28 06:38:56;;;;;;;;;;;13.80;65.50;;;12.66;64.37;99483.94;12273263;19;19923;-85
2023/10/28 06:42:58;;;;;;;;;;;13.80;65.60;;;12.72;64.34;99501.75;12273594;19;19937;-85
2023/10/28 06:46:59;;;;;;;;;;;13.80;65.50;;;12.65;64.35;99483.13;12272177;19;19926;-83
2023/10/28 06:51:03;;;;;;;;;;;13.80;65.60;;;12.73;64.49;99512.13;12273121;19;19914;-85
2023/10/28 06:55:05;;;;;;;;;;;13.80;65.60;;;12.59;64.50;99491.50;12274524;19;19915;-84
2023/10/28 06:59:06;;;;;;;;;;;13.90;65.60;;;12.69;64.32;99505.50;12275901;19;19922;-83
2023/10/28 07:03:08;;;;;;;;;;;13.90;65.80;;;12.66;64.39;99504.91;12275923;19;19919;-84
2023/10/28 07:07:14;;;;;;;;;;;13.80;65.60;;;12.72;64.37;99530.56;12261163;19;19922;-84
2023/10/28 07:11:15;;;;;;;;;;;13.90;65.80;;;12.69;64.44;99530.84;12271513;19;19942;-84
2023/10/28 07:15:17;;;;;;;;;;;13.90;65.80;;;12.81;64.53;99550.78;12275608;19;19952;-83
2023/10/28 07:19:19;;;;;;;;;;;13.90;65.80;;;12.80;64.38;99555.19;12265588;19;19925;-84
2023/10/28 07:23:21;;;;;;;;;;;13.90;65.80;;;12.78;64.47;99553.66;12265563;19;19929;-84
2023/10/28 07:27:22;;;;;;;;;;;14.00;65.80;;;12.81;64.45;99553.41;12269357;19;19966;-83
2023/10/28 07:31:24;;;;;;;;;;;14.00;65.80;;;12.82;64.47;99560.28;12257796;19;19911;-83
2023/10/28 07:35:25;;;;;;;;;;;14.10;65.80;;;12.78;64.64;99559.72;12274375;19;19967;-84
2023/10/28 07:39:27;;;;;;;;;;;14.00;65.70;;;12.83;64.57;99572.44;12269195;19;19915;-84
2023/10/28 07:43:28;;;;;;;;;;;14.00;65.70;;;12.83;64.46;99575.91;12273218;19;19919;-85
2023/10/28 07:47:31;;;;;;;;;;;14.10;65.70;;;12.84;64.40;99585.41;12268285;19;20259;-82
2023/10/28 07:51:35;;;;;;;;;;;14.00;65.60;;;12.82;64.38;99578.63;12270022;19;20255;-83
2023/10/28 07:55:39;;;;;;;;;;;14.00;65.70;;;12.64;64.49;99560.06;12275077;19;19947;-82
2023/10/28 07:59:42;;;;;;;;;;;14.10;65.80;;;12.79;64.47;99584.13;12270414;19;20459;-83
2023/10/28 08:03:47;;;;;;;;;;;14.00;65.70;;;12.90;64.46;99605.03;12269169;19;19922;-83
2023/10/28 08:07:50;;;;;;;;;;;14.10;65.80;;;12.90;64.49;99606.81;12265535;19;20281;-82
2023/10/28 08:11:53;;;;;;;;;;;14.10;65.80;;;12.94;64.54;99610.88;12269432;19;19930;-83
2023/10/28 08:15:54;;;;;;;;;;;14.10;65.70;;;12.96;64.56;99624.66;12273326;19;19919;-85
2023/10/28 08:19:56;;;;;;;;;;;14.10;65.80;;;12.96;64.60;99622.88;12274874;19;19946;-82
2023/10/28 08:23:57;;;;;;;;;;;14.10;65.80;;;12.98;64.66;99633.22;12275255;19;19955;-83
2023/10/28 08:27:58;;;;;;;;;;;14.20;65.90;;;12.96;64.51;99630.75;12264849;19;19943;-82
2023/10/28 08:32:00;;;;;;;;;;;14.20;66.20;;;13.04;64.52;99635.31;12258622;19;19919;-83
2023/10/28 08:36:03;;;;;;;;;;;14.20;66.10;;;13.01;64.48;99646.06;12270533;19;19939;-83
2023/10/28 08:40:08;;;;;;;;;;;14.20;65.80;;;13.01;64.58;99649.50;12265206;19;19918;-82
2023/10/28 08:44:12;;;;;;;;;;;14.20;65.80;;;13.01;64.60;99656.56;12270826;19;19943;-83
2023/10/28 08:48:14;;;;;;;;;;;14.20;65.90;;;13.03;64.62;99654.63;12270987;19;19925;-84
2023/10/28 08:52:21;;;;;;;;;;;14.20;66.10;;;13.05;64.50;99657.97;12266114;19;19926;-83
2023/10/28 08:56:25;;;;;;;;;;;14.20;66.10;;;13.02;64.65;99650.38;12267206;19;19915;-84
2023/10/28 09:00:29;;;;;;;;;;;14.40;66.40;;;12.98;64.56;99647.16;12263887;19;20305;-83
2023/10/28 09:04:31;;;;;;;;;;;14.30;66.30;;;13.19;64.74;99680.41;12264347;19;19914;-84
2023/10/28 09:08:32;;;;;;;;;;;14.30;66.30;;;13.14;64.64;99678.16;12270972;19;19927;-83
2023/10/28 09:12:34;;;;;;;;;;;14.40;66.50;;;13.22;64.70;99672.28;12266311;19;19922;-84
2023/10/28 09:16:35;;;;;;;;;;;14.40;66.40;;;13.23;64.66;99687.06;12266756;19;19931;-84
2023/10/28 09:20:41;;;;;;;;;;;14.50;66.30;;;13.25;64.64;99693.00;12273879;19;19946;-83
2023/10/28 09:24:45;;;;;;;;;;;14.50;66.30;;;13.26;64.72;99697.34;12275483;19;20337;-83
2023/10/28 09:28:48;;;;;;;;;;;14.50;66.30;;;13.35;64.74;99711.47;12276197;19;19922;-84
2023/10/28 09:32:52;;;;;;;;;;;14.50;66.40;;;13.39;64.75;99732.06;12259498;19;19923;-83
2023/10/28 09:36:54;;;;;;;;;;;14.60;66.40;;;13.36;64.77;99723.63;12272459;19;19911;-84
2023/10/28 09:40:58;;;;;;;;;;;14.60;66.50;;;13.43;64.58;99735.28;12265794;19;19941;-84
2023/10/28 09:45:08;;;;;;;;;;;14.60;66.50;;;13.45;64.66;99728.94;12261393;19;19955;-83
2023/10/28 09:49:10;;;;;;;;;;;14.60;66.50;;;13.36;64.61;99710.50;12260430;19;19927;-83
2023/10/28 09:53:15;;;;;;;;;;;14.70;66.60;;;13.41;64.66;99721.44;12266572;19;20746;-84
2023/10/28 09:57:17;;;;;;;;;;;14.70;66.60;;;13.53;64.71;99719.59;12266854;19;19918;-82
2023/10/28 10:01:48;;;;;;;;;;;14.70;66.60;;;13.55;64.65;99734.22;12265974;19;19923;-83
2023/10/28 10:05:51;;;;;;;;;;;14.70;66.50;;;13.53;64.62;99720.44;12272662;19;19967;-85
2023/10/28 10:09:53;;;;;;;;;;;14.70;67.00;;;13.58;64.72;99723.47;12274209;19;20248;-83
2023/10/28 10:13:57;;;;;;;;;;;14.80;67.20;;;13.59;64.81;99714.66;12268851;19;20378;-83
2023/10/28 10:18:10;;;;;;;;;;;14.80;67.10;;;13.68;64.86;99728.78;12271095;19;19923;-84
2023/10/28 10:22:12;;;;;;;;;;;14.80;67.10;;;13.68;64.70;99719.13;12272324;19;19921;-84
2023/10/28 10:26:27;;;;;;;;;;;14.90;67.20;;;13.75;64.81;99726.50;12273888;19;19981;-83
2023/10/28 10:30:33;;;;;;;;;;;14.90;67.10;;;13.73;64.91;99721.38;12265329;19;19946;-83
2023/10/28 10:34:39;;;;;;;;;;;15.00;67.20;;;13.70;64.77;99704.09;12284198;19;20525;-84
2023/10/28 10:38:40;;;;;;;;;;;15.00;67.10;;;13.88;64.78;99730.56;12283711;19;19925;-84
2023/10/28 10:42:42;;;;;;;;;;;15.00;67.00;;;13.89;64.68;99726.16;12278755;19;19906;-82
2023/10/28 10:46:46;;;;;;;;;;;15.10;67.00;;;13.91;64.87;99721.63;12257078;19;19911;-83
2023/10/28 10:50:47;;;;;;;;;;;15.10;67.50;;;14.01;64.82;99737.38;12251403;19;19963;-83
2023/10/28 10:54:49;;;;;;;;;;;15.20;67.40;;;14.02;64.91;99737.28;12265293;19;19922;-84
2023/10/28 10:58:50;;;;;;;;;;;15.20;67.20;;;14.02;64.94;99728.56;12269125;19;19930;-84
2023/10/28 11:02:56;;;;;;;;;;;15.20;67.20;;;14.11;64.82;99746.16;12268443;19;19927;-84
2023/10/28 11:06:58;;;;;;;;;;;15.40;67.40;;;14.10;64.83;99745.31;12269999;19;19915;-83
2023/10/28 11:10:59;;;;;;;;;;;15.40;67.30;;;14.18;64.96;99757.81;12274124;19;19919;-84
2023/10/28 11:15:01;;;;;;;;;;;15.40;67.10;;;14.26;64.87;99768.47;12271264;19;19923;-84
2023/10/28 11:19:03;;;;;;;;;;;15.50;67.10;;;14.32;64.96;99770.56;12270944;19;19914;-83
2023/10/28 11:23:05;;;;;;;;;;;15.50;67.20;;;14.31;64.79;99757.56;12279612;19;19974;-83
2023/10/28 11:27:06;;;;;;;;;;;15.70;67.40;;;14.36;64.74;99757.97;12284771;19;19959;-83
2023/10/28 11:31:08;;;;;;;;;;;15.60;67.00;;;14.31;64.71;99745.28;12277470;19;19930;-82
2023/10/28 11:35:13;;;;;;;;;;;15.60;66.90;;;14.44;65.00;99755.53;12283924;19;19988;-84
2023/10/28 11:39:15;;;;;;;;;;;15.70;67.00;;;14.39;65.05;99739.34;12274727;19;20628;-83
2023/10/28 11:43:18;;;;;;;;;;;15.70;66.90;;;14.45;64.88;99740.63;12277091;19;19918;-84
2023/10/28 11:47:19;;;;;;;;;;;15.70;67.00;;;14.51;64.86;99745.34;12275218;19;19923;-84
2023/10/28 11:51:23;;;;;;;;;;;15.80;67.10;;;14.53;65.04;99751.31;12271492;19;19928;-84
2023/10/28 11:55:24;;;;;;;;;;;15.80;67.00;;;14.67;64.94;99760.63;12270412;19;20405;-84
2023/10/28 11:59:25;;;;;;;;;;;15.90;67.10;;;14.68;65.15;99760.47;12274128;19;19934;-83
2023/10/28 12:03:27;;;;;;;;;;;15.90;67.10;;;14.75;64.90;99771.28;12275617;19;19923;-84
2023/10/28 12:07:29;;;;;;;;;;;16.00;67.10;;;14.70;64.86;99755.91;12277822;19;19922;-83
2023/10/28 12:11:30;;;;;;;;;;;16.00;67.00;;;14.78;64.98;99758.69;12273785;19;19931;-83
2023/10/28 12:15:32;;;;;;;;;;;16.00;67.00;;;14.86;64.94;99754.56;12272474;19;19918;-83
2023/10/28 12:19:34;;;;;;;;;;;16.10;67.00;;;14.86;64.94;99758.03;12271614;19;19922;-82
2023/10/28 12:23:35;;;;;;;;;;;16.10;67.00;;;14.90;64.85;99764.66;12271461;19;19926;-84
2023/10/28 12:27:37;;;;;;;;;;;16.10;66.90;;;14.93;64.91;99774.91;12275878;19;19915;-83
2023/10/28 12:31:38;;;;;;;;;;;16.20;67.10;;;14.84;64.79;99754.69;12266468;19;19914;-82
2023/10/28 12:35:40;;;;;;;;;;;16.20;67.10;;;14.93;65.02;99761.78;12267821;19;19915;-83
2023/10/28 12:39:41;;;;;;;;;;;16.20;67.10;;;15.00;64.98;99770.75;12260625;19;20028;-84
2023/10/28 12:43:43;;;;;;;;;;;16.20;67.00;;;14.93;64.79;99753.03;12266027;19;19951;-84
2023/10/28 12:47:44;;;;;;;;;;;16.20;66.80;;;15.00;64.74;99760.25;12275327;19;19955;-82
2023/10/28 12:51:47;;;;;;;;;;;16.20;66.80;;;14.97;64.89;99755.25;12279954;19;19925;-82
2023/10/28 12:55:48;;;;;;;;;;;16.20;66.70;;;14.97;64.84;99749.19;12282678;19;19919;-82
2023/10/28 12:59:50;;;;;;;;;;;16.20;66.80;;;15.01;64.99;99748.78;12275673;19;19939;-83
2023/10/28 13:03:53;;;;;;;;;;;16.20;66.90;;;15.06;64.88;99753.59;12275097;19;19948;-83
2023/10/28 13:07:54;;;;;;;;;;;16.30;67.00;;;15.07;64.99;99760.53;12270793;19;19914;-84
2023/10/28 13:11:58;;;;;;;;;;;16.30;67.10;;;15.12;64.69;99765.38;12266957;19;19947;-81
2023/10/28 13:16:00;;;;;;;;;;;16.30;67.20;;;15.10;65.02;99755.00;12275065;19;20191;-84
2023/10/28 13:20:04;;;;;;;;;;;16.30;67.30;;;15.13;64.89;99754.72;12270713;19;19998;-83
2023/10/28 13:24:06;;;;;;;;;;;16.30;67.30;;;15.09;64.97;99753.31;12272208;19;19926;-82
2023/10/28 13:28:09;;;;;;;;;;;16.40;67.30;;;15.17;64.87;99752.63;12272709;19;19933;-82
2023/10/28 13:32:11;;;;;;;;;;;16.40;67.30;;;15.24;64.86;99761.66;12265349;19;20391;-83
2023/10/28 13:36:12;;;;;;;;;;;16.40;67.40;;;15.20;64.79;99768.13;12270710;19;20549;-81
2023/10/28 13:40:14;;;;;;;;;;;16.40;67.50;;;15.27;64.70;99774.53;12280196;19;19918;-82
2023/10/28 13:44:16;;;;;;;;;;;16.40;67.40;;;15.17;64.95;99757.91;12275800;19;19933;-82
2023/10/28 13:48:17;;;;;;;;;;;16.50;67.70;;;15.32;64.83;99780.19;12277238;19;19921;-81
2023/10/28 13:52:18;;;;;;;;;;;16.50;67.70;;;15.35;64.88;99784.34;12274625;19;19926;-82
2023/10/28 13:56:20;;;;;;;;;;;16.60;67.70;;;15.37;64.75;99785.88;12285253;19;19915;-81
2023/10/28 14:00:23;;;;;;;;;;;16.60;67.60;;;15.30;64.86;99770.78;12283523;19;19934;-82
2023/10/28 14:04:25;;;;;;;;;;;16.60;67.60;;;15.35;64.68;99785.19;12290074;19;19919;-83
2023/10/28 14:08:26;;;;;;;;;;;16.50;67.60;;;15.38;64.76;99784.91;12286656;19;19915;-82
2023/10/28 14:12:28;;;;;;;;;;;16.50;67.80;;;15.38;64.80;99776.19;12287066;19;19918;-83
2023/10/28 14:16:30;;;;;;;;;;;16.60;67.80;;;15.37;64.74;99777.16;12280211;19;19944;-85
2023/10/28 14:20:31;;;;;;;;;;;16.50;67.50;;;15.33;64.70;99773.97;12268296;19;19926;-82
2023/10/28 14:24:33;;;;;;;;;;;16.50;67.60;;;15.32;64.69;99780.19;12285946;19;20408;-83
2023/10/28 14:28:35;;;;;;;;;;;16.50;67.50;;;15.31;64.82;99789.06;12284785;19;19911;-82
2023/10/28 14:32:37;;;;;;;;;;;16.50;67.60;;;15.29;64.95;99774.41;12285546;19;19918;-82
2023/10/28 14:36:39;;;;;;;;;;;16.40;68.00;;;15.21;65.01;99769.81;12287231;19;19918;-82
2023/10/28 14:40:41;;;;;;;;;;;16.40;67.90;;;15.24;64.77;99774.81;12283667;19;19915;-83
2023/10/28 14:44:42;;;;;;;;;;;16.40;67.70;;;15.22;64.73;99764.41;12288945;19;19914;-83
2023/10/28 14:48:44;;;;;;;;;;;16.40;67.70;;;15.34;64.62;99783.53;12281965;19;19921;-83
2023/10/28 14:52:45;;;;;;;;;;;16.40;67.80;;;15.30;64.83;99781.31;12278860;19;19922;-83
2023/10/28 14:56:47;;;;;;;;;;;16.40;67.80;;;15.23;64.67;99768.72;12285328;19;19915;-84
2023/10/28 15:00:50;;;;;;;;;;;16.50;67.70;;;15.38;64.67;99789.34;12280817;19;19922;-84
2023/10/28 15:04:52;;;;;;;;;;;16.50;67.70;;;15.39;64.60;99780.47;12287877;19;19915;-82
2023/10/28 15:08:53;;;;;;;;;;;16.50;67.70;;;15.37;64.87;99783.25;12281587;19;19933;-83
2023/10/28 15:12:54;;;;;;;;;;;16.50;67.70;;;15.35;64.66;99784.34;12281744;19;19933;-84
2023/10/28 15:16:56;;;;;;;;;;;16.50;67.60;;;15.35;64.89;99787.81;12282175;19;19919;-83
2023/10/28 15:20:57;;;;;;;;;;;16.50;67.60;;;15.33;64.70;99786.28;12280551;19;20428;-83
2023/10/28 15:24:58;;;;;;;;;;;16.50;67.60;;;15.24;64.71;99777.44;12283842;19;19911;-82
2023/10/28 15:29:01;;;;;;;;;;;16.50;67.60;;;15.33;64.82;99791.53;12278213;19;19934;-82
2023/10/28 15:33:03;;;;;;;;;;;16.50;67.70;;;15.35;64.89;99790.44;12279411;19;19934;-82
2023/10/28 15:37:05;;;;;;;;;;;16.40;67.60;;;15.37;64.63;99793.78;12284747;19;19934;-83
2023/10/28 15:41:07;;;;;;;;;;;16.50;67.70;;;15.33;64.88;99797.63;12282323;19;19924;-83
2023/10/28 15:45:10;;;;;;;;;;;16.50;67.70;;;15.35;64.64;99800.97;12284577;19;19911;-82
2023/10/28 15:49:12;;;;;;;;;;;16.50;67.60;;;15.34;64.79;99801.94;12278436;19;19923;-81
2023/10/28 15:53:13;;;;;;;;;;;16.50;67.60;;;15.34;64.70;99793.19;12281902;19;20278;-82
2023/10/28 15:57:15;;;;;;;;;;;16.40;67.40;;;15.33;64.69;99802.91;12274618;19;21441;-84
2023/10/28 16:01:17;;;;;;;;;;;16.40;67.40;;;15.30;64.76;99794.47;12281832;19;19930;-83
2023/10/28 16:05:19;;;;;;;;;;;16.40;67.30;;;15.31;64.64;99804.00;12271463;19;19935;-83
2023/10/28 16:09:24;;;;;;;;;;;16.40;67.40;;;15.21;64.70;99794.31;12280899;19;19931;-83
2023/10/28 16:13:25;;;;;;;;;;;16.40;67.40;;;15.24;64.81;99799.28;12284901;19;19929;-83
2023/10/28 16:17:27;;;;;;;;;;;16.40;67.50;;;15.29;64.72;99819.13;12273427;19;19937;-83
2023/10/28 16:21:28;;;;;;;;;;;16.30;67.50;;;15.23;64.91;99808.16;12270208;19;19942;-84
2023/10/28 16:25:34;;;;;;;;;;;16.40;67.60;;;15.22;64.74;99810.91;12268770;19;20231;-82
2023/10/28 16:29:35;;;;;;;;;;;16.30;67.40;;;15.27;64.74;99804.28;12281010;19;19919;-81
2023/10/28 16:33:37;;;;;;;;;;;16.30;67.40;;;15.21;64.57;99815.34;12280984;19;19930;-82
2023/10/28 16:37:38;;;;;;;;;;;16.30;67.50;;;15.23;64.68;99815.22;12271303;19;19923;-84
2023/10/28 16:41:40;;;;;;;;;;;16.30;67.50;;;15.22;64.57;99822.28;12283326;19;19906;-83
2023/10/28 16:45:42;;;;;;;;;;;16.30;67.40;;;15.17;64.59;99813.94;12280704;19;19975;-83
2023/10/28 16:49:43;;;;;;;;;;;16.30;67.40;;;15.22;64.74;99832.78;12276054;19;20015;-83
2023/10/28 16:53:45;;;;;;;;;;;16.30;67.60;;;15.19;64.71;99832.25;12276098;19;19922;-81
2023/10/28 16:57:48;;;;;;;;;;;16.30;67.50;;;15.21;64.78;99840.84;12277388;19;19922;-81
2023/10/28 17:01:51;;;;;;;;;;;16.30;67.50;;;15.21;64.68;99851.34;12279645;19;19911;-81
2023/10/28 17:05:52;;;;;;;;;;;16.30;67.60;;;15.19;64.66;99842.75;12281540;19;19925;-82
2023/10/28 17:09:55;;;;;;;;;;;16.30;67.50;;;15.19;64.48;99842.75;12279953;19;19925;-83
2023/10/28 17:13:57;;;;;;;;;;;16.30;67.50;;;15.13;64.59;99838.06;12284227;19;19925;-82
2023/10/28 17:17:58;;;;;;;;;;;16.30;67.40;;;15.16;64.75;99838.59;12279058;19;19919;-80
2023/10/28 17:22:00;;;;;;;;;;;16.30;67.40;;;15.13;64.66;99846.78;12274452;19;19926;-82
2023/10/28 17:26:03;;;;;;;;;;;16.30;67.30;;;15.04;64.72;99823.91;12281987;19;19956;-82
2023/10/28 17:30:05;;;;;;;;;;;16.20;67.30;;;15.15;64.49;99836.09;12288433;19;19925;-82
2023/10/28 17:34:07;;;;;;;;;;;16.20;67.60;;;15.08;64.49;99840.25;12296685;19;19922;-82
2023/10/28 17:38:09;;;;;;;;;;;16.20;67.40;;;15.11;64.68;99851.31;12294976;19;20326;-81
2023/10/28 17:42:10;;;;;;;;;;;16.20;67.50;;;15.09;64.71;99853.25;12296362;19;19907;-82
2023/10/28 17:46:15;;;;;;;;;;;16.20;67.60;;;15.03;64.61;99865.13;12293844;19;19947;-82
2023/10/28 17:50:16;;;;;;;;;;;16.20;67.60;;;15.02;64.64;99858.22;12292588;19;20569;-82
2023/10/28 17:54:18;;;;;;;;;;;16.10;67.70;;;15.01;64.54;99851.31;12292269;19;19930;-82
2023/10/28 17:58:19;;;;;;;;;;;16.10;68.70;;;14.96;64.62;99869.28;12293557;19;19935;-82
2023/10/28 18:02:21;;;;;;;;;;;16.00;68.00;;;14.83;64.73;99847.66;12286036;19;21569;-82
2023/10/28 18:06:23;;;;;;;;;;;16.00;68.20;;;14.91;64.69;99871.50;12284329;19;19922;-81
2023/10/28 18:10:25;;;;;;;;;;;16.00;68.20;;;14.89;64.60;99869.97;12288805;19;19923;-81
2023/10/28 18:14:26;;;;;;;;;;;16.00;68.20;;;14.92;64.77;99881.03;12289888;19;19927;-82
2023/10/28 18:18:28;;;;;;;;;;;15.90;68.10;;;14.92;64.75;99883.66;12292079;19;19919;-82
2023/10/28 18:22:30;;;;;;;;;;;15.90;68.20;;;14.96;64.74;99886.84;12292259;19;19919;-82